Terminal Aerodrome Forecast
Issued by NWS

Home | Current Version | Previous Version | Text Only | Print | Product List | Glossary On
Versions: 1 2 3 4 5 6 7 8 9 10 11 12 13 14 15 16 17 18 19 20 21 22 23 24 25
000
FTUS41 KOKX 240535
TAFHPN
TAF
KHPN 240535Z 2406/2506 15009G16KT P6SM OVC020
     FM240900 15011G22KT 5SM -SHRA SCT005 OVC012 WS020/17050KT
     FM241300 17016G25KT 2SM +SHRA VCTS SCT005CB OVC012
      WS020/17050KT
     FM241600 17018G32KT 2SM +SHRA VCTS SCT005CB OVC012
      WS020/17050KT
     FM250200 19014G20KT 2SM +SHRA VCTS SCT005CB OVC012
      WS020/17050KT
     FM250300 21012KT 2SM +SHRA VCTS SCT005CB OVC012
     FM250500 21007KT 2SM +SHRA VCTS SCT005CB OVC012
      AMD NOT SKED=

USA.gov is the U.S. government's official web portal to all federal, state and local government web resources and services.